Time;durP1;ratioP1;P1;durP2;ratioP2;P2;SDS_P1;SDS_P2;PMS_P1;PMS_P2;Temp;Humidity;BMP_temperature;BMP_pressure;BME280_temperature;BME280_humidity;BME280_pressure;Samples;Min_cycle;Max_cycle;Signal;HPM_P1;HPM_P2
2022/04/07 00:02:19;;;;;;;10.10;6.25;;;11.80;72.20;;;;;;2373098;56;21513;-75
2022/04/07 00:04:46;;;;;;;9.70;7.20;;;11.80;72.50;;;;;;2373500;56;21132;-75
2022/04/07 00:07:14;;;;;;;8.18;5.40;;;11.80;72.90;;;;;;2373698;56;21201;-74
2022/04/07 00:09:41;;;;;;;8.55;6.50;;;11.80;72.50;;;;;;2374265;56;21110;-75
2022/04/07 00:12:10;;;;;;;7.87;6.55;;;11.80;72.50;;;;;;2374289;56;21113;-75
2022/04/07 00:14:37;;;;;;;9.25;6.62;;;11.80;72.30;;;;;;2374234;56;21082;-74
2022/04/07 00:17:05;;;;;;;7.60;6.47;;;11.80;72.40;;;;;;2373507;56;21126;-75
2022/04/07 00:19:33;;;;;;;7.68;6.45;;;11.90;72.50;;;;;;2372228;56;21071;-75
2022/04/07 00:22:00;;;;;;;8.93;6.30;;;11.90;72.30;;;;;;2373572;56;21522;-74
2022/04/07 00:24:27;;;;;;;9.70;6.72;;;11.90;72.00;;;;;;2373769;56;21091;-75
2022/04/07 00:26:55;;;;;;;9.88;6.32;;;11.90;72.20;;;;;;2626652;52;21062;-75
2022/04/07 00:29:22;;;;;;;8.25;5.93;;;11.90;71.80;;;;;;2373936;56;21051;-74
2022/04/07 00:31:56;;;;;;;10.02;6.62;;;11.90;71.60;;;;;;2373825;56;21138;-74
2022/04/07 00:34:23;;;;;;;6.50;5.78;;;11.90;71.80;;;;;;2372649;56;21157;-75
2022/04/07 00:36:51;;;;;;;10.02;6.53;;;11.80;71.70;;;;;;2373309;56;21119;-75
2022/04/07 00:39:18;;;;;;;6.50;5.82;;;11.90;71.70;;;;;;2373194;56;21043;-74
2022/04/07 00:41:45;;;;;;;7.87;6.22;;;11.90;71.30;;;;;;2373939;56;21533;-74
2022/04/07 00:44:13;;;;;;;9.77;7.10;;;11.90;71.60;;;;;;2374189;56;21051;-75
2022/04/07 00:46:40;;;;;;;9.35;6.70;;;11.90;71.90;;;;;;2373381;56;21066;-75
2022/04/07 00:49:08;;;;;;;8.52;5.90;;;11.90;72.00;;;;;;2627258;52;21098;-74
2022/04/07 00:51:38;;;;;;;8.13;6.57;;;11.90;71.70;;;;;;2373087;56;21019;-75
2022/04/07 00:54:07;;;;;;;9.00;7.40;;;11.90;71.60;;;;;;2372985;56;21047;-74
2022/04/07 00:56:36;;;;;;;9.07;6.57;;;11.90;71.80;;;;;;2373609;56;21060;-74
2022/04/07 00:59:04;;;;;;;6.97;5.87;;;11.90;71.80;;;;;;2373950;56;21206;-74
2022/04/07 01:01:32;;;;;;;8.95;6.70;;;11.90;72.10;;;;;;2374147;56;21113;-74
2022/04/07 01:04:00;;;;;;;9.10;6.90;;;11.90;72.10;;;;;;2374161;56;21114;-74
2022/04/07 01:06:27;;;;;;;9.02;6.45;;;11.90;72.30;;;;;;2373648;56;21126;-74
2022/04/07 01:11:34;;;;;;;9.45;6.30;;;11.90;72.10;;;;;;2355990;57;22070;-73
2022/04/07 01:14:01;;;;;;;7.68;6.07;;;11.90;72.50;;;;;;2347988;57;21045;-73
2022/04/07 01:16:30;;;;;;;6.47;5.80;;;11.90;71.90;;;;;;2364838;56;21692;-73
2022/04/07 01:18:59;;;;;;;8.10;5.37;;;12.00;72.00;;;;;;2628445;52;21138;-73
2022/04/07 01:21:27;;;;;;;6.95;5.65;;;12.00;71.70;;;;;;2375033;56;21055;-73
2022/04/07 01:24:02;;;;;;;10.32;6.90;;;12.00;72.00;;;;;;2374924;56;21043;-73
2022/04/07 01:26:32;;;;;;;8.20;6.00;;;12.00;71.90;;;;;;2374539;56;21078;-73
2022/04/07 01:29:00;;;;;;;7.75;6.65;;;12.00;71.80;;;;;;2375303;56;21537;-73
2022/04/07 01:31:28;;;;;;;6.57;5.32;;;12.10;71.70;;;;;;2374921;56;21109;-73
2022/04/07 01:33:56;;;;;;;8.27;6.53;;;12.10;71.50;;;;;;2374429;56;21097;-74
2022/04/07 01:36:26;;;;;;;8.45;6.00;;;12.10;72.30;;;;;;2374314;56;21071;-73
2022/04/07 01:38:54;;;;;;;7.55;6.75;;;12.10;71.40;;;;;;2628958;52;21111;-73
2022/04/07 01:41:21;;;;;;;11.50;7.60;;;12.10;71.50;;;;;;2375290;56;21031;-73
2022/04/07 01:43:50;;;;;;;10.27;6.93;;;12.10;71.60;;;;;;2374945;56;21031;-73
2022/04/07 01:46:19;;;;;;;11.05;7.78;;;12.10;71.30;;;;;;2374436;56;21071;-73
2022/04/07 01:48:47;;;;;;;9.55;8.05;;;12.00;71.70;;;;;;2374457;56;21051;-73
2022/04/07 01:51:16;;;;;;;12.60;9.07;;;12.00;71.70;;;;;;2374877;56;21042;-73
2022/04/07 01:53:45;;;;;;;10.15;8.50;;;12.00;71.70;;;;;;2375174;56;21039;-73
2022/04/07 01:56:13;;;;;;;10.02;8.00;;;11.90;71.60;;;;;;2374253;56;21055;-73
2022/04/07 01:58:41;;;;;;;11.50;8.60;;;12.00;71.70;;;;;;2621791;51;21098;-75
2022/04/07 02:01:08;;;;;;;9.35;7.68;;;11.90;71.70;;;;;;2303524;58;21133;-75
2022/04/07 02:03:36;;;;;;;11.07;8.32;;;12.00;71.40;;;;;;2304003;58;21539;-75
2022/04/07 02:06:14;;;;;;;10.38;7.35;;;12.00;71.40;;;;;;2302577;58;21198;-75
2022/04/07 02:08:41;;;;;;;9.95;6.62;;;11.90;71.50;;;;;;2302222;58;21143;-75
2022/04/07 02:11:10;;;;;;;11.27;6.47;;;11.90;71.20;;;;;;2302330;58;21047;-75
2022/04/07 02:13:38;;;;;;;7.72;6.32;;;11.90;71.20;;;;;;2302468;58;21074;-75
2022/04/07 02:16:07;;;;;;;12.10;6.87;;;11.90;71.40;;;;;;2301704;58;21715;-75
2022/04/07 02:18:34;;;;;;;12.68;6.82;;;11.90;71.20;;;;;;2302566;58;21062;-75
2022/04/07 02:21:02;;;;;;;9.52;7.43;;;11.90;71.50;;;;;;2302002;58;21133;-76
2022/04/07 02:23:29;;;;;;;8.63;6.32;;;11.80;71.70;;;;;;2301951;58;21046;-75
2022/04/07 02:25:57;;;;;;;10.45;6.68;;;11.90;71.30;;;;;;2537903;54;21146;-75
2022/04/07 02:28:24;;;;;;;9.60;7.15;;;11.90;71.40;;;;;;2538726;54;21134;-75
2022/04/07 02:30:51;;;;;;;8.75;6.57;;;11.90;71.70;;;;;;2301737;58;21193;-76
2022/04/07 02:33:18;;;;;;;8.98;6.28;;;11.90;71.50;;;;;;2299801;58;21065;-76
2022/04/07 02:35:46;;;;;;;9.98;6.55;;;11.80;71.10;;;;;;2301491;58;21058;-75
2022/04/07 02:38:13;;;;;;;8.68;6.05;;;11.90;71.50;;;;;;2301540;58;21639;-76
2022/04/07 02:40:40;;;;;;;9.55;5.82;;;11.90;71.50;;;;;;2301661;58;21194;-75
2022/04/07 02:43:07;;;;;;;10.75;6.37;;;11.80;71.30;;;;;;2301627;58;21133;-75
2022/04/07 02:45:35;;;;;;;9.05;6.22;;;11.90;71.10;;;;;;2301098;58;21075;-75
2022/04/07 02:50:37;;;;;;;10.45;7.20;;;11.90;71.50;;;;;;2335236;57;27849;-75
2022/04/07 02:53:04;;;;;;;10.35;6.37;;;11.70;74.20;;;;;;2347039;57;21607;-75
2022/04/07 02:55:32;;;;;;;9.45;6.80;;;11.80;72.70;;;;;;2604681;52;21043;-75
2022/04/07 02:58:00;;;;;;;8.38;6.57;;;11.90;71.60;;;;;;2375195;56;21177;-75
2022/04/07 03:00:27;;;;;;;9.60;6.47;;;11.90;71.40;;;;;;2375126;56;21015;-75
2022/04/07 03:02:55;;;;;;;10.55;6.90;;;12.00;71.00;;;;;;2375384;56;21101;-75
2022/04/07 03:05:22;;;;;;;8.55;6.53;;;11.90;70.90;;;;;;2374782;56;21042;-75
2022/04/07 03:07:49;;;;;;;9.57;6.43;;;11.90;71.30;;;;;;2372614;56;21050;-75
2022/04/07 03:10:16;;;;;;;7.37;6.22;;;11.80;71.70;;;;;;2375198;56;21046;-75
2022/04/07 03:12:44;;;;;;;11.00;7.20;;;11.80;71.60;;;;;;2374650;56;21040;-75
2022/04/07 03:15:11;;;;;;;9.68;7.53;;;11.80;71.80;;;;;;2374916;56;21628;-75
2022/04/07 03:17:38;;;;;;;11.45;7.75;;;11.80;72.40;;;;;;2374832;56;21031;-75
2022/04/07 03:20:08;;;;;;;10.20;7.95;;;11.80;72.90;;;;;;2374849;56;21636;-75
2022/04/07 03:22:35;;;;;;;13.25;7.07;;;11.80;73.20;;;;;;2375110;56;21545;-74
2022/04/07 03:25:03;;;;;;;10.80;8.32;;;11.80;72.70;;;;;;2374807;56;21105;-75
2022/04/07 03:27:30;;;;;;;12.85;9.30;;;11.80;73.10;;;;;;2374518;56;21286;-75
2022/04/07 03:29:57;;;;;;;12.50;9.30;;;11.80;73.00;;;;;;2374938;56;21038;-75
2022/04/07 03:32:24;;;;;;;11.88;9.38;;;11.80;72.90;;;;;;2374244;56;21660;-76
2022/04/07 03:34:51;;;;;;;10.98;8.90;;;11.80;72.50;;;;;;2375047;56;21092;-74
2022/04/07 03:37:20;;;;;;;11.05;8.77;;;11.80;72.40;;;;;;2374765;56;21114;-75
2022/04/07 03:39:49;;;;;;;15.55;10.05;;;11.80;72.40;;;;;;2375058;56;21114;-75
2022/04/07 03:42:17;;;;;;;14.80;8.98;;;11.80;72.50;;;;;;2374568;56;21122;-75
2022/04/07 03:44:44;;;;;;;14.43;9.43;;;11.80;72.20;;;;;;2374462;56;21115;-75
2022/04/07 03:47:11;;;;;;;11.40;8.68;;;11.80;72.40;;;;;;2374249;56;21051;-75
2022/04/07 03:49:39;;;;;;;11.48;9.45;;;11.80;72.10;;;;;;2374050;56;21027;-76
2022/04/07 03:52:08;;;;;;;10.75;9.18;;;11.80;72.10;;;;;;2374208;56;21062;-75
2022/04/07 03:54:35;;;;;;;18.92;9.93;;;11.80;71.90;;;;;;2627993;52;21030;-76
2022/04/07 03:57:03;;;;;;;10.70;7.68;;;11.80;71.70;;;;;;2374510;56;21118;-75
2022/04/07 03:59:33;;;;;;;10.82;7.72;;;11.80;71.60;;;;;;2374501;56;21597;-76
2022/04/07 04:02:00;;;;;;;10.40;7.57;;;11.80;71.50;;;;;;2373779;56;21051;-76
2022/04/07 04:04:28;;;;;;;11.85;6.90;;;11.80;71.30;;;;;;2373693;56;21055;-75
2022/04/07 04:06:55;;;;;;;9.48;7.20;;;11.80;71.30;;;;;;2372807;56;21529;-76
2022/04/07 04:09:22;;;;;;;11.50;7.32;;;11.70;71.40;;;;;;2372647;56;21035;-75
2022/04/07 04:11:50;;;;;;;13.80;8.73;;;11.80;71.70;;;;;;2627112;52;21043;-76
2022/04/07 04:14:17;;;;;;;9.10;6.70;;;11.80;71.60;;;;;;2374076;56;21054;-76
2022/04/07 04:16:44;;;;;;;10.82;7.82;;;11.80;71.70;;;;;;2373594;56;21297;-76
2022/04/07 04:19:11;;;;;;;10.65;6.07;;;11.80;71.70;;;;;;2374223;56;21114;-75
2022/04/07 04:24:15;;;;;;;8.60;6.45;;;11.80;71.50;;;;;;2355059;57;22117;-75
2022/04/07 04:26:42;;;;;;;12.15;6.85;;;11.80;71.30;;;;;;2367936;56;21126;-75
2022/04/07 04:29:09;;;;;;;8.10;5.72;;;11.80;71.20;;;;;;2374583;56;21054;-75
2022/04/07 04:31:37;;;;;;;7.60;6.18;;;11.80;71.30;;;;;;2372947;56;21093;-76
2022/04/07 04:34:04;;;;;;;6.55;5.82;;;11.80;71.40;;;;;;2373334;56;21055;-76
2022/04/07 04:36:33;;;;;;;7.72;5.97;;;11.80;70.80;;;;;;2372804;56;21054;-74
2022/04/07 04:39:02;;;;;;;9.38;5.72;;;11.80;71.30;;;;;;2371494;56;21331;-75
2022/04/07 04:41:29;;;;;;;9.48;5.45;;;11.80;71.70;;;;;;2374025;56;21007;-76
2022/04/07 04:43:57;;;;;;;6.82;4.50;;;11.80;70.90;;;;;;2374263;56;21393;-76
2022/04/07 04:46:24;;;;;;;7.18;5.93;;;11.80;71.10;;;;;;2374395;56;21083;-76
2022/04/07 04:48:51;;;;;;;8.13;5.25;;;11.70;70.70;;;;;;2375160;56;21127;-75
2022/04/07 04:51:18;;;;;;;7.00;4.47;;;11.80;71.00;;;;;;2375097;56;21621;-76
2022/04/07 04:53:45;;;;;;;8.55;5.32;;;11.70;70.90;;;;;;2375248;56;21118;-75
2022/04/07 04:56:13;;;;;;;5.55;4.85;;;11.70;71.00;;;;;;2374004;56;21098;-75
2022/04/07 04:58:40;;;;;;;5.10;4.60;;;11.80;70.70;;;;;;2374826;56;21046;-75
2022/04/07 05:01:07;;;;;;;4.10;3.65;;;11.80;70.70;;;;;;2374593;56;21529;-75
2022/04/07 05:06:10;;;;;;;9.52;5.80;;;11.80;70.40;;;;;;2350519;56;27838;-75
2022/04/07 05:08:37;;;;;;;6.50;5.65;;;11.70;73.70;;;;;;2374274;56;21117;-75
2022/04/07 05:11:04;;;;;;;7.93;5.43;;;11.80;72.50;;;;;;2374625;56;21126;-75
2022/04/07 05:13:32;;;;;;;5.80;4.93;;;11.90;72.20;;;;;;2374222;56;21042;-74
2022/04/07 05:15:59;;;;;;;8.50;5.62;;;11.90;70.80;;;;;;2627836;52;21521;-75
2022/04/07 05:18:26;;;;;;;7.45;5.90;;;11.90;70.50;;;;;;2373868;56;21102;-75
2022/04/07 05:20:53;;;;;;;6.47;5.53;;;11.90;70.60;;;;;;2374419;56;21118;-75
2022/04/07 05:23:20;;;;;;;11.27;6.35;;;11.90;70.90;;;;;;2374507;56;21098;-75
2022/04/07 05:25:48;;;;;;;8.15;6.18;;;11.90;71.30;;;;;;2373859;56;21301;-75
2022/04/07 05:28:15;;;;;;;9.05;6.10;;;11.90;71.00;;;;;;2627425;52;21042;-75
2022/04/07 05:30:42;;;;;;;9.82;5.72;;;11.90;71.50;;;;;;2373813;56;21173;-75
2022/04/07 05:33:11;;;;;;;7.45;5.68;;;11.90;71.20;;;;;;2374260;56;21047;-74
2022/04/07 05:35:38;;;;;;;6.95;5.87;;;11.90;71.10;;;;;;2373894;56;21046;-75
2022/04/07 05:38:06;;;;;;;9.90;5.78;;;11.90;71.80;;;;;;2374710;56;21039;-75
2022/04/07 05:40:33;;;;;;;7.57;5.62;;;11.80;71.80;;;;;;2373672;56;21042;-75
2022/04/07 05:43:01;;;;;;;7.60;5.65;;;11.80;71.70;;;;;;2372918;56;21047;-75
2022/04/07 05:45:29;;;;;;;7.65;5.72;;;11.90;71.90;;;;;;2374090;56;21042;-75
2022/04/07 05:47:56;;;;;;;7.75;5.45;;;11.90;71.90;;;;;;2374954;56;21521;-75
2022/04/07 05:50:23;;;;;;;5.45;4.37;;;11.90;71.90;;;;;;2374590;56;21114;-74
2022/04/07 05:52:51;;;;;;;9.20;4.62;;;11.90;71.20;;;;;;2375090;56;21138;-75
2022/04/07 05:55:18;;;;;;;5.85;4.32;;;11.90;71.10;;;;;;2374729;56;21605;-75
2022/04/07 05:57:46;;;;;;;4.70;3.90;;;11.90;70.90;;;;;;2375135;56;21051;-75
2022/04/07 06:00:18;;;;;;;8.75;4.22;;;12.00;71.20;;;;;;2375201;56;21556;-75
2022/04/07 06:02:47;;;;;;;8.07;4.87;;;12.00;71.30;;;;;;2375228;56;21030;-75
2022/04/07 06:05:16;;;;;;;5.70;3.97;;;12.00;71.40;;;;;;2374743;56;21098;-75
2022/04/07 06:07:44;;;;;;;5.12;3.83;;;11.90;71.40;;;;;;2375286;56;21062;-75
2022/04/07 06:10:12;;;;;;;7.82;4.03;;;11.90;71.40;;;;;;2375337;56;21095;-75
2022/04/07 06:12:42;;;;;;;9.40;5.25;;;12.00;71.20;;;;;;2374804;56;21585;-74
2022/04/07 06:15:10;;;;;;;7.10;4.50;;;12.00;71.80;;;;;;2375036;56;21107;-75
2022/04/07 06:17:39;;;;;;;7.32;3.95;;;12.00;71.70;;;;;;2373698;56;21050;-75
2022/04/07 06:20:09;;;;;;;6.50;4.18;;;11.90;70.90;;;;;;2374174;56;21074;-75
2022/04/07 06:22:38;;;;;;;5.28;3.87;;;11.90;71.10;;;;;;2627342;52;21039;-75
2022/04/07 06:25:06;;;;;;;6.05;4.40;;;12.00;71.10;;;;;;2373868;56;21058;-75
2022/04/07 06:27:38;;;;;;;5.78;4.60;;;12.00;71.00;;;;;;2373893;56;21246;-74
2022/04/07 06:30:09;;;;;;;5.20;3.92;;;12.00;71.50;;;;;;2373991;56;21093;-75
2022/04/07 06:32:37;;;;;;;7.12;4.75;;;11.90;71.40;;;;;;2374247;56;21027;-75
2022/04/07 06:35:07;;;;;;;7.65;4.57;;;11.90;71.70;;;;;;2374129;56;21055;-75
2022/04/07 06:37:45;;;;;;;7.70;5.07;;;11.90;71.60;;;;;;2373928;56;21039;-75
2022/04/07 06:40:13;;;;;;;7.10;5.10;;;11.90;71.40;;;;;;2373503;56;21046;-74
2022/04/07 06:42:41;;;;;;;4.80;4.18;;;11.90;71.40;;;;;;2373641;56;21553;-75
2022/04/07 06:45:09;;;;;;;8.90;4.65;;;11.90;71.00;;;;;;2373868;56;21321;-75
2022/04/07 06:47:38;;;;;;;5.75;4.93;;;11.90;71.20;;;;;;2371390;56;21106;-75
2022/04/07 06:50:09;;;;;;;6.65;4.60;;;11.90;71.40;;;;;;2373064;56;21134;-75
2022/04/07 06:52:36;;;;;;;9.40;5.72;;;11.90;71.00;;;;;;2374148;56;21046;-75
2022/04/07 06:55:05;;;;;;;7.97;5.20;;;11.90;71.60;;;;;;2373718;56;21349;-75
2022/04/07 06:57:46;;;;;;;8.68;4.95;;;11.90;71.80;;;;;;2373575;56;21145;-75
2022/04/07 07:00:15;;;;;;;8.60;4.85;;;11.90;71.60;;;;;;2373853;56;21046;-75
2022/04/07 07:02:44;;;;;;;6.75;4.30;;;12.00;71.50;;;;;;2374175;56;21110;-75
2022/04/07 07:05:12;;;;;;;11.85;5.40;;;12.00;71.60;;;;;;2373607;56;21106;-75
2022/04/07 07:07:39;;;;;;;8.95;4.37;;;12.10;71.40;;;;;;2373780;56;21094;-74
2022/04/07 07:10:07;;;;;;;6.68;4.25;;;12.10;70.80;;;;;;2374243;56;21098;-75
2022/04/07 07:12:34;;;;;;;11.15;4.35;;;12.10;70.60;;;;;;2374219;56;21059;-75
2022/04/07 07:15:01;;;;;;;6.50;4.20;;;12.10;70.30;;;;;;2373982;56;21111;-75
2022/04/07 07:17:33;;;;;;;6.37;3.37;;;12.10;70.30;;;;;;2373638;56;21043;-75
2022/04/07 07:20:05;;;;;;;10.43;4.22;;;12.10;70.70;;;;;;2374172;56;21125;-75
2022/04/07 07:22:32;;;;;;;8.30;3.85;;;12.10;70.30;;;;;;2374261;56;21062;-74
2022/04/07 07:25:00;;;;;;;5.10;3.78;;;12.10;70.50;;;;;;2374094;56;21043;-75
2022/04/07 07:27:27;;;;;;;8.73;4.20;;;12.20;70.90;;;;;;2373767;56;21089;-75
2022/04/07 07:29:54;;;;;;;6.97;4.12;;;12.20;70.70;;;;;;2374224;56;21186;-75
2022/04/07 07:32:21;;;;;;;9.32;4.45;;;12.20;70.70;;;;;;2373658;56;21038;-75
2022/04/07 07:34:51;;;;;;;6.70;3.53;;;12.20;70.10;;;;;;2374149;56;21101;-75
2022/04/07 07:37:19;;;;;;;9.98;4.18;;;12.20;70.00;;;;;;2373531;56;21023;-75
2022/04/07 07:39:46;;;;;;;7.90;3.62;;;12.30;70.80;;;;;;2374243;56;21207;-74
2022/04/07 07:42:13;;;;;;;5.45;3.50;;;12.30;70.30;;;;;;2374065;56;21039;-74
2022/04/07 07:44:41;;;;;;;8.10;4.40;;;12.30;70.30;;;;;;2374130;56;21034;-74
2022/04/07 07:47:08;;;;;;;7.97;3.92;;;12.30;70.90;;;;;;2626717;52;21058;-75
2022/04/07 07:49:35;;;;;;;9.57;4.18;;;12.30;71.20;;;;;;2374131;56;21141;-74
2022/04/07 07:52:04;;;;;;;4.97;3.28;;;12.40;71.10;;;;;;2373997;56;21043;-74
2022/04/07 07:54:31;;;;;;;10.13;3.30;;;12.30;70.40;;;;;;2374016;56;21099;-74
2022/04/07 07:56:58;;;;;;;8.05;3.55;;;12.30;70.40;;;;;;2627123;52;21123;-75
2022/04/07 07:59:25;;;;;;;8.52;3.47;;;12.30;70.40;;;;;;2402970;54;21064;-73
2022/04/07 08:01:53;;;;;;;8.02;3.60;;;12.30;70.50;;;;;;2320960;58;21063;-72
2022/04/07 08:04:20;;;;;;;7.80;3.42;;;12.30;70.60;;;;;;2321656;58;21562;-73
2022/04/07 08:06:47;;;;;;;10.70;4.35;;;12.30;70.60;;;;;;2320574;58;21103;-74
2022/04/07 08:09:14;;;;;;;5.90;3.45;;;12.30;70.90;;;;;;2321440;58;21111;-73
2022/04/07 08:11:42;;;;;;;8.50;4.68;;;12.20;71.30;;;;;;2319950;58;21163;-73
2022/04/07 08:14:10;;;;;;;5.65;3.47;;;12.20;71.80;;;;;;2321372;58;21084;-75
2022/04/07 08:16:38;;;;;;;12.48;3.47;;;12.20;71.80;;;;;;2320852;58;21198;-75
2022/04/07 08:19:05;;;;;;;6.37;2.92;;;12.20;72.30;;;;;;2321185;58;21068;-74
2022/04/07 08:21:33;;;;;;;7.40;3.75;;;12.20;71.80;;;;;;2321422;58;21606;-75
2022/04/07 08:24:00;;;;;;;8.98;4.50;;;12.20;71.80;;;;;;2321772;58;21064;-74
2022/04/07 08:26:28;;;;;;;8.55;3.15;;;12.20;71.30;;;;;;2321417;58;21068;-75
2022/04/07 08:28:55;;;;;;;8.05;3.83;;;12.20;72.00;;;;;;2320012;58;21067;-74
2022/04/07 08:31:23;;;;;;;6.97;3.12;;;12.20;72.50;;;;;;2321466;58;21140;-75
2022/04/07 08:33:50;;;;;;;5.60;3.25;;;12.20;72.50;;;;;;2563209;54;21044;-75
2022/04/07 08:36:17;;;;;;;7.45;3.22;;;12.10;73.10;;;;;;2321086;58;21561;-75
2022/04/07 08:38:44;;;;;;;5.72;3.03;;;12.10;72.40;;;;;;2321749;58;21188;-74
2022/04/07 08:41:12;;;;;;;5.82;2.45;;;12.10;72.70;;;;;;2321963;58;21048;-75
2022/04/07 08:43:42;;;;;;;7.30;3.20;;;12.10;72.30;;;;;;2321562;58;21072;-75
2022/04/07 08:46:11;;;;;;;11.65;3.15;;;12.10;72.40;;;;;;2321253;58;21151;-75
2022/04/07 08:48:40;;;;;;;4.50;2.83;;;12.10;73.00;;;;;;2321846;58;21039;-75
2022/04/07 08:51:08;;;;;;;5.70;3.17;;;12.10;73.50;;;;;;2321700;58;21059;-75
2022/04/07 08:53:36;;;;;;;5.93;3.00;;;12.10;73.80;;;;;;2563829;54;21068;-74
2022/04/07 08:56:06;;;;;;;5.30;2.90;;;12.10;74.10;;;;;;2321368;58;21135;-74
2022/04/07 08:58:33;;;;;;;4.65;2.87;;;12.10;73.60;;;;;;2321613;58;21056;-74
2022/04/07 09:01:01;;;;;;;6.15;3.22;;;12.10;74.00;;;;;;2321689;58;21307;-73
2022/04/07 09:03:28;;;;;;;7.25;2.85;;;12.10;74.10;;;;;;2321644;58;21128;-75
2022/04/07 09:05:57;;;;;;;6.62;2.47;;;12.10;74.40;;;;;;2321166;58;21147;-74
2022/04/07 09:08:32;;;;;;;4.72;2.70;;;12.10;74.50;;;;;;2321947;58;21095;-73
2022/04/07 09:11:00;;;;;;;6.32;2.60;;;12.10;75.10;;;;;;2321582;58;21056;-74
2022/04/07 09:13:31;;;;;;;11.65;4.40;;;12.10;74.00;;;;;;2321849;58;21062;-75
2022/04/07 09:15:59;;;;;;;4.57;2.20;;;12.10;73.80;;;;;;2320977;58;21064;-75
2022/04/07 09:18:27;;;;;;;3.95;1.85;;;12.10;74.50;;;;;;2321789;58;21052;-75
2022/04/07 09:20:54;;;;;;;4.82;1.80;;;12.10;74.50;;;;;;2563496;54;21040;-74
2022/04/07 09:23:21;;;;;;;6.22;1.92;;;12.00;73.20;;;;;;2563249;54;22245;-75
2022/04/07 09:25:49;;;;;;;3.42;1.05;;;12.10;74.50;;;;;;2321021;58;21056;-74
2022/04/07 09:28:27;;;;;;;2.78;1.60;;;12.00;72.70;;;;;;2563455;54;21048;-75
2022/04/07 09:30:57;;;;;;;2.33;0.95;;;11.90;71.30;;;;;;2320624;58;21167;-74
2022/04/07 09:33:27;;;;;;;1.65;0.85;;;11.70;69.90;;;;;;2321098;58;21060;-73
2022/04/07 09:36:02;;;;;;;5.45;1.00;;;11.60;69.90;;;;;;2321201;58;21091;-74
2022/04/07 09:38:31;;;;;;;2.97;0.80;;;11.50;69.00;;;;;;2563523;54;21048;-75
2022/04/07 09:41:06;;;;;;;2.00;0.95;;;11.30;68.80;;;;;;2321737;58;21116;-75
2022/04/07 09:43:45;;;;;;;1.62;0.90;;;11.20;68.50;;;;;;2321445;58;21558;-74
2022/04/07 09:46:13;;;;;;;2.72;0.98;;;11.20;68.90;;;;;;2321507;58;21068;-74
2022/04/07 09:48:57;;;;;;;1.58;0.98;;;11.00;68.90;;;;;;2321734;58;21131;-74
2022/04/07 09:51:25;;;;;;;1.20;0.80;;;11.10;69.50;;;;;;2321795;58;21186;-74
2022/04/07 09:53:55;;;;;;;6.07;0.85;;;11.00;69.40;;;;;;2321546;58;21079;-76
2022/04/07 09:56:27;;;;;;;1.50;0.80;;;10.90;69.70;;;;;;2321577;58;21135;-76
2022/04/07 09:58:56;;;;;;;0.93;0.70;;;10.90;69.70;;;;;;2563817;54;21064;-75
2022/04/07 10:01:24;;;;;;;2.12;1.02;;;10.90;70.10;;;;;;2562883;54;21060;-74
2022/04/07 10:03:51;;;;;;;3.05;1.10;;;10.90;70.20;;;;;;2321395;58;21104;-74
2022/04/07 10:06:19;;;;;;;4.65;1.20;;;10.90;70.50;;;;;;2562763;54;21143;-74
2022/04/07 10:08:49;;;;;;;2.85;1.10;;;10.80;70.40;;;;;;2563316;54;21139;-74
2022/04/07 10:11:17;;;;;;;1.87;0.88;;;10.70;70.30;;;;;;2321792;58;21052;-74
2022/04/07 10:13:45;;;;;;;2.53;1.00;;;10.60;70.70;;;;;;2321583;58;21120;-73
2022/04/07 10:16:14;;;;;;;0.98;0.90;;;10.60;71.10;;;;;;2563418;54;21051;-74
2022/04/07 10:18:46;;;;;;;1.17;0.90;;;10.50;71.20;;;;;;2321698;58;21056;-74
2022/04/07 10:21:29;;;;;;;2.28;0.90;;;10.50;71.10;;;;;;2321846;58;21249;-74
2022/04/07 10:24:10;;;;;;;3.72;0.90;;;10.50;71.60;;;;;;2321642;58;21052;-74
2022/04/07 10:26:42;;;;;;;1.35;0.80;;;10.50;71.50;;;;;;2321439;58;21400;-73
2022/04/07 10:29:21;;;;;;;1.17;0.90;;;10.40;71.40;;;;;;2321637;58;21052;-75
2022/04/07 10:32:18;;;;;;;2.17;1.10;;;10.40;71.50;;;;;;2562777;54;21060;-74
2022/04/07 10:34:56;;;;;;;1.25;1.00;;;10.40;71.40;;;;;;2321516;58;21032;-75
2022/04/07 10:37:47;;;;;;;2.95;1.75;;;10.40;71.10;;;;;;2321600;58;21617;-74
2022/04/07 10:40:33;;;;;;;1.08;0.80;;;10.30;71.40;;;;;;2563759;54;21056;-74
2022/04/07 10:43:18;;;;;;;2.40;1.00;;;10.30;71.30;;;;;;2321586;58;21057;-74
2022/04/07 10:45:47;;;;;;;1.65;1.02;;;10.30;71.00;;;;;;2321411;58;21195;-75
2022/04/07 10:48:27;;;;;;;1.30;0.82;;;10.30;70.80;;;;;;2321824;58;21100;-75
2022/04/07 10:50:56;;;;;;;2.15;1.00;;;10.30;70.80;;;;;;2321247;58;21052;-75
2022/04/07 10:53:27;;;;;;;3.92;1.02;;;10.30;70.90;;;;;;2320811;58;21049;-74
2022/04/07 10:55:56;;;;;;;4.55;1.10;;;10.20;71.00;;;;;;2319284;58;21048;-76
2022/04/07 10:58:55;;;;;;;2.00;1.00;;;10.20;71.00;;;;;;2319363;58;21052;-77
2022/04/07 11:02:01;;;;;;;2.55;1.23;;;10.10;71.20;;;;;;2560629;54;21060;-77
2022/04/07 11:04:36;;;;;;;3.47;1.52;;;10.00;71.10;;;;;;2320663;58;21139;-76
2022/04/07 11:07:19;;;;;;;5.50;1.87;;;10.00;71.30;;;;;;2319968;58;21145;-74
2022/04/07 11:10:11;;;;;;;1.58;1.10;;;9.90;71.50;;;;;;2321799;58;21134;-77
2022/04/07 11:12:42;;;;;;;3.50;1.40;;;9.90;71.80;;;;;;2321900;58;21127;-74
2022/04/07 11:15:29;;;;;;;4.40;1.58;;;9.80;71.60;;;;;;2320823;58;21122;-74
2022/04/07 11:18:02;;;;;;;4.32;1.35;;;9.80;71.80;;;;;;2321457;58;21071;-76
2022/04/07 11:20:30;;;;;;;3.87;1.10;;;9.80;71.90;;;;;;2321640;58;21056;-76
2022/04/07 11:23:01;;;;;;;2.00;1.10;;;9.80;71.60;;;;;;2321891;58;21048;-76
2022/04/07 11:25:31;;;;;;;2.58;1.00;;;9.70;71.90;;;;;;2562847;54;21199;-76
2022/04/07 11:28:05;;;;;;;3.00;1.73;;;9.80;72.50;;;;;;2318911;58;21119;-75
2022/04/07 11:30:38;;;;;;;5.72;1.30;;;9.80;72.50;;;;;;2321769;58;21127;-75
2022/04/07 11:33:43;;;;;;;11.82;1.60;;;9.80;72.70;;;;;;2563092;54;21068;-75
2022/04/07 11:36:31;;;;;;;6.43;1.37;;;9.90;73.70;;;;;;2320649;58;21060;-75
2022/04/07 11:38:58;;;;;;;6.05;1.70;;;10.00;73.40;;;;;;2321209;58;21128;-75
2022/04/07 11:41:33;;;;;;;4.50;1.37;;;10.20;74.60;;;;;;2320755;58;21570;-75
2022/04/07 11:44:08;;;;;;;6.03;1.87;;;10.30;74.50;;;;;;2321408;58;21079;-75
2022/04/07 11:46:35;;;;;;;2.08;1.20;;;10.40;74.70;;;;;;2316258;58;21139;-75
2022/04/07 11:49:04;;;;;;;3.25;1.45;;;10.50;74.40;;;;;;2319580;58;21234;-75
2022/04/07 11:51:35;;;;;;;2.62;1.42;;;10.60;74.80;;;;;;2560646;54;21083;-75
2022/04/07 11:54:03;;;;;;;2.62;1.20;;;10.70;73.60;;;;;;2320641;58;21458;-75
2022/04/07 11:56:32;;;;;;;4.25;1.45;;;10.80;73.50;;;;;;2561263;54;21096;-73
2022/04/07 11:59:01;;;;;;;2.58;1.27;;;10.90;74.20;;;;;;2321010;58;21147;-73
2022/04/07 12:01:28;;;;;;;1.70;1.08;;;11.00;73.20;;;;;;2320891;58;21075;-74
2022/04/07 12:03:57;;;;;;;1.40;1.20;;;11.00;72.10;;;;;;2320680;58;21052;-72
2022/04/07 12:06:26;;;;;;;2.12;1.42;;;11.10;72.20;;;;;;2319946;58;21634;-73
2022/04/07 12:08:54;;;;;;;1.60;1.50;;;11.20;72.10;;;;;;2320819;58;21618;-73
2022/04/07 12:11:23;;;;;;;2.33;1.62;;;11.20;72.00;;;;;;2561854;54;21773;-73
2022/04/07 12:13:53;;;;;;;4.12;1.58;;;11.30;72.00;;;;;;2562410;54;21060;-73
2022/04/07 12:16:22;;;;;;;1.83;1.52;;;11.40;72.20;;;;;;2318638;58;21059;-73
2022/04/07 12:18:54;;;;;;;4.00;1.73;;;11.40;71.80;;;;;;2320426;58;21652;-73
2022/04/07 12:21:23;;;;;;;2.97;1.95;;;11.50;71.60;;;;;;2319737;58;21191;-73
2022/04/07 12:24:05;;;;;;;3.87;2.42;;;11.60;71.30;;;;;;2321022;58;21391;-73
2022/04/07 12:26:39;;;;;;;2.25;1.80;;;11.70;70.70;;;;;;2562526;54;21048;-73
2022/04/07 12:29:07;;;;;;;2.15;1.58;;;11.80;71.30;;;;;;2321547;58;21681;-73
2022/04/07 12:31:34;;;;;;;2.30;1.35;;;11.90;70.70;;;;;;2321952;58;21113;-73
2022/04/07 12:34:08;;;;;;;2.50;1.83;;;11.90;69.30;;;;;;2319111;58;21191;-73
2022/04/07 12:36:40;;;;;;;5.22;1.73;;;12.00;68.50;;;;;;2322079;58;21139;-73
2022/04/07 12:39:09;;;;;;;3.42;1.52;;;12.10;68.90;;;;;;2321839;58;21053;-75
2022/04/07 12:41:38;;;;;;;3.60;1.65;;;12.20;68.90;;;;;;2563844;54;21535;-73
2022/04/07 12:46:46;;;;;;;4.37;2.05;;;12.30;68.20;;;;;;2314675;57;28440;-72
2022/04/07 12:49:14;;;;;;;3.03;1.77;;;12.50;66.50;;;;;;2593096;53;22148;-73
2022/04/07 12:51:42;;;;;;;3.30;1.77;;;12.50;65.80;;;;;;2594924;53;21528;-73
2022/04/07 12:54:12;;;;;;;5.05;1.83;;;12.60;65.80;;;;;;2347247;57;21529;-73
2022/04/07 12:56:41;;;;;;;5.57;1.95;;;12.60;65.80;;;;;;2345743;57;21056;-72
2022/04/07 12:59:10;;;;;;;4.80;2.00;;;12.60;65.70;;;;;;2343793;57;21045;-72
2022/04/07 13:01:38;;;;;;;5.62;1.85;;;12.70;66.20;;;;;;2346814;57;21038;-73
2022/04/07 13:04:08;;;;;;;3.58;1.70;;;12.70;65.70;;;;;;2347603;57;21041;-73
2022/04/07 13:06:37;;;;;;;7.75;2.25;;;12.80;65.20;;;;;;2346209;57;21054;-74
2022/04/07 13:09:05;;;;;;;2.15;1.35;;;12.80;63.70;;;;;;2347223;57;21097;-74
2022/04/07 13:11:35;;;;;;;1.30;1.20;;;12.70;63.30;;;;;;2347270;57;21069;-73